sensor_id;sensor_type;location;lat;lon;timestamp;temperature;humidity
33255;DHT22;19623;52.482;9.762;2023-02-15T00:00:03;1.70;99.90
33255;DHT22;19623;52.482;9.762;2023-02-15T00:02:30;1.70;99.90
33255;DHT22;19623;52.482;9.762;2023-02-15T00:04:56;1.60;99.90
33255;DHT22;19623;52.482;9.762;2023-02-15T00:07:22;1.50;99.90
33255;DHT22;19623;52.482;9.762;2023-02-15T00:09:48;1.40;99.90
33255;DHT22;19623;52.482;9.762;2023-02-15T00:12:14;1.40;99.90
33255;DHT22;19623;52.482;9.762;2023-02-15T00:14:40;1.30;99.90
33255;DHT22;19623;52.482;9.762;2023-02-15T00:17:07;1.40;99.90
33255;DHT22;19623;52.482;9.762;2023-02-15T00:19:33;1.50;99.90
33255;DHT22;19623;52.482;9.762;2023-02-15T00:21:58;1.50;99.90
33255;DHT22;19623;52.482;9.762;2023-02-15T00:24:24;1.50;99.90
33255;DHT22;19623;52.482;9.762;2023-02-15T00:26:50;1.60;99.90
33255;DHT22;19623;52.482;9.762;2023-02-15T00:29:18;1.40;99.90
33255;DHT22;19623;52.482;9.762;2023-02-15T00:31:44;1.40;99.90
33255;DHT22;19623;52.482;9.762;2023-02-15T00:36:40;1.30;99.90
33255;DHT22;19623;52.482;9.762;2023-02-15T00:39:06;1.20;99.90
33255;DHT22;19623;52.482;9.762;2023-02-15T00:41:32;1.20;99.90
33255;DHT22;19623;52.482;9.762;2023-02-15T00:43:58;1.10;99.90
33255;DHT22;19623;52.482;9.762;2023-02-15T00:46:24;1.10;99.90
33255;DHT22;19623;52.482;9.762;2023-02-15T00:48:50;1.10;99.90
33255;DHT22;19623;52.482;9.762;2023-02-15T00:51:16;1.10;99.90
33255;DHT22;19623;52.482;9.762;2023-02-15T00:53:43;1.10;99.90
33255;DHT22;19623;52.482;9.762;2023-02-15T00:56:10;1.00;99.90
33255;DHT22;19623;52.482;9.762;2023-02-15T00:58:36;0.90;99.90
33255;DHT22;19623;52.482;9.762;2023-02-15T01:01:06;0.80;99.90
33255;DHT22;19623;52.482;9.762;2023-02-15T01:03:33;0.90;99.90
33255;DHT22;19623;52.482;9.762;2023-02-15T01:05:59;0.90;99.90
33255;DHT22;19623;52.482;9.762;2023-02-15T01:08:24;0.90;99.90
33255;DHT22;19623;52.482;9.762;2023-02-15T01:10:50;0.80;99.90
33255;DHT22;19623;52.482;9.762;2023-02-15T01:13:16;0.80;99.90
33255;DHT22;19623;52.482;9.762;2023-02-15T01:15:43;0.90;99.90
33255;DHT22;19623;52.482;9.762;2023-02-15T01:18:09;0.90;99.90
33255;DHT22;19623;52.482;9.762;2023-02-15T01:20:37;0.90;99.90
33255;DHT22;19623;52.482;9.762;2023-02-15T01:23:05;0.90;99.90
33255;DHT22;19623;52.482;9.762;2023-02-15T01:25:33;0.80;99.90
33255;DHT22;19623;52.482;9.762;2023-02-15T01:27:59;0.70;99.90
33255;DHT22;19623;52.482;9.762;2023-02-15T01:30:25;0.60;99.90
33255;DHT22;19623;52.482;9.762;2023-02-15T01:32:51;0.60;99.90
33255;DHT22;19623;52.482;9.762;2023-02-15T01:35:16;0.70;99.90
33255;DHT22;19623;52.482;9.762;2023-02-15T01:37:42;0.80;99.90
33255;DHT22;19623;52.482;9.762;2023-02-15T01:40:12;0.80;99.90
33255;DHT22;19623;52.482;9.762;2023-02-15T01:42:39;0.90;99.90
33255;DHT22;19623;52.482;9.762;2023-02-15T01:50:28;0.70;99.90
33255;DHT22;19623;52.482;9.762;2023-02-15T01:53:06;0.70;99.90
33255;DHT22;19623;52.482;9.762;2023-02-15T01:55:42;0.60;99.90
33255;DHT22;19623;52.482;9.762;2023-02-15T01:58:09;0.60;99.90
33255;DHT22;19623;52.482;9.762;2023-02-15T02:00:35;0.50;99.90
33255;DHT22;19623;52.482;9.762;2023-02-15T02:03:01;0.50;99.90
33255;DHT22;19623;52.482;9.762;2023-02-15T02:05:29;0.40;99.90
33255;DHT22;19623;52.482;9.762;2023-02-15T02:07:57;0.30;99.90
33255;DHT22;19623;52.482;9.762;2023-02-15T02:10:24;0.20;99.90
33255;DHT22;19623;52.482;9.762;2023-02-15T02:12:54;0.10;99.90
33255;DHT22;19623;52.482;9.762;2023-02-15T02:15:58;0.10;99.90
33255;DHT22;19623;52.482;9.762;2023-02-15T02:23:40;0.00;99.90
33255;DHT22;19623;52.482;9.762;2023-02-15T02:34:41;0.10;99.90
33255;DHT22;19623;52.482;9.762;2023-02-15T02:37:12;0.10;99.90
33255;DHT22;19623;52.482;9.762;2023-02-15T02:39:42;0.10;99.90
33255;DHT22;19623;52.482;9.762;2023-02-15T02:42:17;0.10;99.90
33255;DHT22;19623;52.482;9.762;2023-02-15T02:44:48;0.10;99.90
33255;DHT22;19623;52.482;9.762;2023-02-15T02:49:46;0.10;99.90
33255;DHT22;19623;52.482;9.762;2023-02-15T02:55:15;0.10;99.90
33255;DHT22;19623;52.482;9.762;2023-02-15T03:00:31;0.10;99.90
33255;DHT22;19623;52.482;9.762;2023-02-15T03:03:06;0.00;99.90
33255;DHT22;19623;52.482;9.762;2023-02-15T03:05:36;0.00;99.90
33255;DHT22;19623;52.482;9.762;2023-02-15T03:08:04;0.00;99.90
33255;DHT22;19623;52.482;9.762;2023-02-15T03:10:32;-0.10;99.90
33255;DHT22;19623;52.482;9.762;2023-02-15T03:13:00;-0.10;99.90
33255;DHT22;19623;52.482;9.762;2023-02-15T03:15:30;-0.10;99.90
33255;DHT22;19623;52.482;9.762;2023-02-15T03:18:19;0.00;99.90
33255;DHT22;19623;52.482;9.762;2023-02-15T03:20:46;0.00;99.90
33255;DHT22;19623;52.482;9.762;2023-02-15T03:23:19;0.00;99.90
33255;DHT22;19623;52.482;9.762;2023-02-15T03:25:52;-0.10;99.90
33255;DHT22;19623;52.482;9.762;2023-02-15T03:28:23;-0.10;99.90
33255;DHT22;19623;52.482;9.762;2023-02-15T03:30:53;-0.10;99.90
33255;DHT22;19623;52.482;9.762;2023-02-15T03:33:21;-0.20;99.90
33255;DHT22;19623;52.482;9.762;2023-02-15T03:35:53;-0.20;99.90
33255;DHT22;19623;52.482;9.762;2023-02-15T03:38:34;-0.30;99.90
33255;DHT22;19623;52.482;9.762;2023-02-15T03:41:02;-0.40;99.90
33255;DHT22;19623;52.482;9.762;2023-02-15T03:46:29;-0.50;99.90
33255;DHT22;19623;52.482;9.762;2023-02-15T03:49:21;-0.60;99.90
33255;DHT22;19623;52.482;9.762;2023-02-15T03:51:50;-0.60;99.90
33255;DHT22;19623;52.482;9.762;2023-02-15T03:54:26;-0.60;99.90
33255;DHT22;19623;52.482;9.762;2023-02-15T03:59:57;-0.60;99.90
33255;DHT22;19623;52.482;9.762;2023-02-15T04:05:37;-0.80;99.90
33255;DHT22;19623;52.482;9.762;2023-02-15T04:08:03;-0.80;99.90
33255;DHT22;19623;52.482;9.762;2023-02-15T04:10:29;-0.80;99.90
33255;DHT22;19623;52.482;9.762;2023-02-15T04:13:13;-0.90;99.90
33255;DHT22;19623;52.482;9.762;2023-02-15T04:15:39;-0.90;99.90
33255;DHT22;19623;52.482;9.762;2023-02-15T04:18:24;-0.80;99.90
33255;DHT22;19623;52.482;9.762;2023-02-15T04:21:08;-0.80;99.90
33255;DHT22;19623;52.482;9.762;2023-02-15T04:23:52;-0.70;99.90
33255;DHT22;19623;52.482;9.762;2023-02-15T04:26:36;-0.70;99.90
33255;DHT22;19623;52.482;9.762;2023-02-15T04:29:02;-0.60;99.90
33255;DHT22;19623;52.482;9.762;2023-02-15T04:31:27;-0.60;99.90
33255;DHT22;19623;52.482;9.762;2023-02-15T04:33:53;-0.60;99.90
33255;DHT22;19623;52.482;9.762;2023-02-15T04:36:18;-0.60;99.90
33255;DHT22;19623;52.482;9.762;2023-02-15T04:38:44;-0.60;99.90
33255;DHT22;19623;52.482;9.762;2023-02-15T04:41:09;-0.60;99.90
33255;DHT22;19623;52.482;9.762;2023-02-15T04:43:37;-0.60;99.90
33255;DHT22;19623;52.482;9.762;2023-02-15T04:46:03;-0.60;99.90
33255;DHT22;19623;52.482;9.762;2023-02-15T04:48:29;-0.70;99.90
33255;DHT22;19623;52.482;9.762;2023-02-15T04:50:55;-0.80;99.90
33255;DHT22;19623;52.482;9.762;2023-02-15T04:53:21;-0.90;99.90
33255;DHT22;19623;52.482;9.762;2023-02-15T04:55:46;-0.90;99.90
33255;DHT22;19623;52.482;9.762;2023-02-15T04:58:12;-0.90;99.90
33255;DHT22;19623;52.482;9.762;2023-02-15T05:00:38;-0.80;99.90
33255;DHT22;19623;52.482;9.762;2023-02-15T05:03:04;-0.90;99.90
33255;DHT22;19623;52.482;9.762;2023-02-15T05:05:29;-0.90;99.90
33255;DHT22;19623;52.482;9.762;2023-02-15T05:07:55;-0.90;99.90
33255;DHT22;19623;52.482;9.762;2023-02-15T05:10:20;-0.90;99.90
33255;DHT22;19623;52.482;9.762;2023-02-15T05:12:47;-0.90;99.90
33255;DHT22;19623;52.482;9.762;2023-02-15T05:15:13;-0.90;99.90
33255;DHT22;19623;52.482;9.762;2023-02-15T05:17:38;-0.90;99.90
33255;DHT22;19623;52.482;9.762;2023-02-15T05:20:04;-0.90;99.90
33255;DHT22;19623;52.482;9.762;2023-02-15T05:22:30;-0.90;99.90
33255;DHT22;19623;52.482;9.762;2023-02-15T05:24:56;-0.80;99.90
33255;DHT22;19623;52.482;9.762;2023-02-15T05:27:40;-0.80;99.90
33255;DHT22;19623;52.482;9.762;2023-02-15T05:30:24;-0.80;99.90
33255;DHT22;19623;52.482;9.762;2023-02-15T05:32:50;-0.80;99.90
33255;DHT22;19623;52.482;9.762;2023-02-15T05:35:16;-0.80;99.90
33255;DHT22;19623;52.482;9.762;2023-02-15T05:37:42;-0.70;99.90
33255;DHT22;19623;52.482;9.762;2023-02-15T05:40:08;-0.80;99.90
33255;DHT22;19623;52.482;9.762;2023-02-15T05:42:34;-0.70;99.90
33255;DHT22;19623;52.482;9.762;2023-02-15T05:44:59;-0.80;99.90
33255;DHT22;19623;52.482;9.762;2023-02-15T05:47:25;-0.80;99.90
33255;DHT22;19623;52.482;9.762;2023-02-15T05:49:51;-0.70;99.90
33255;DHT22;19623;52.482;9.762;2023-02-15T05:52:16;-0.60;99.90
33255;DHT22;19623;52.482;9.762;2023-02-15T05:54:42;-0.60;99.90
33255;DHT22;19623;52.482;9.762;2023-02-15T05:57:07;-0.70;99.90
33255;DHT22;19623;52.482;9.762;2023-02-15T05:59:33;-0.70;99.90
33255;DHT22;19623;52.482;9.762;2023-02-15T06:01:59;-0.80;99.90
33255;DHT22;19623;52.482;9.762;2023-02-15T06:04:24;-0.80;99.90
33255;DHT22;19623;52.482;9.762;2023-02-15T06:06:50;-0.90;99.90
33255;DHT22;19623;52.482;9.762;2023-02-15T06:09:15;-1.00;99.90
33255;DHT22;19623;52.482;9.762;2023-02-15T06:11:44;-1.10;99.90
33255;DHT22;19623;52.482;9.762;2023-02-15T06:14:11;-1.20;99.90
33255;DHT22;19623;52.482;9.762;2023-02-15T06:16:37;-1.30;99.90
33255;DHT22;19623;52.482;9.762;2023-02-15T06:19:03;-1.40;99.90
33255;DHT22;19623;52.482;9.762;2023-02-15T06:21:29;-1.40;99.90
33255;DHT22;19623;52.482;9.762;2023-02-15T06:23:55;-1.50;99.90
33255;DHT22;19623;52.482;9.762;2023-02-15T06:26:21;-1.50;99.90
33255;DHT22;19623;52.482;9.762;2023-02-15T06:28:46;-1.50;99.90
33255;DHT22;19623;52.482;9.762;2023-02-15T06:31:12;-1.60;99.90
33255;DHT22;19623;52.482;9.762;2023-02-15T06:33:38;-1.60;99.90
33255;DHT22;19623;52.482;9.762;2023-02-15T06:36:03;-1.60;99.90
33255;DHT22;19623;52.482;9.762;2023-02-15T06:38:30;-1.60;99.90
33255;DHT22;19623;52.482;9.762;2023-02-15T06:40:55;-1.60;99.90
33255;DHT22;19623;52.482;9.762;2023-02-15T06:43:21;-1.60;99.90
33255;DHT22;19623;52.482;9.762;2023-02-15T06:45:47;-1.60;99.90
33255;DHT22;19623;52.482;9.762;2023-02-15T06:48:12;-1.50;99.90
33255;DHT22;19623;52.482;9.762;2023-02-15T06:50:39;-1.50;99.90
33255;DHT22;19623;52.482;9.762;2023-02-15T06:53:05;-1.50;99.90
33255;DHT22;19623;52.482;9.762;2023-02-15T06:55:30;-1.50;99.90
33255;DHT22;19623;52.482;9.762;2023-02-15T06:57:56;-1.40;99.90
33255;DHT22;19623;52.482;9.762;2023-02-15T07:00:22;-1.30;99.90
33255;DHT22;19623;52.482;9.762;2023-02-15T07:02:53;-1.30;99.90
33255;DHT22;19623;52.482;9.762;2023-02-15T07:05:21;-1.40;99.90
33255;DHT22;19623;52.482;9.762;2023-02-15T07:07:47;-1.30;99.90
33255;DHT22;19623;52.482;9.762;2023-02-15T07:10:12;-1.30;99.90
33255;DHT22;19623;52.482;9.762;2023-02-15T07:12:38;-1.20;99.90
33255;DHT22;19623;52.482;9.762;2023-02-15T07:15:07;-1.30;99.90
33255;DHT22;19623;52.482;9.762;2023-02-15T07:17:35;-1.20;99.90
33255;DHT22;19623;52.482;9.762;2023-02-15T07:20:06;-1.10;99.90
33255;DHT22;19623;52.482;9.762;2023-02-15T07:22:34;-1.00;99.90
33255;DHT22;19623;52.482;9.762;2023-02-15T07:25:02;-0.90;99.90
33255;DHT22;19623;52.482;9.762;2023-02-15T07:27:29;-0.90;99.90
33255;DHT22;19623;52.482;9.762;2023-02-15T07:29:55;-0.70;99.90
33255;DHT22;19623;52.482;9.762;2023-02-15T07:32:21;-0.60;99.90
33255;DHT22;19623;52.482;9.762;2023-02-15T07:34:46;-0.60;99.90
33255;DHT22;19623;52.482;9.762;2023-02-15T07:37:12;-0.60;99.90
33255;DHT22;19623;52.482;9.762;2023-02-15T07:39:38;-0.50;99.90
33255;DHT22;19623;52.482;9.762;2023-02-15T07:42:03;-0.50;99.90
33255;DHT22;19623;52.482;9.762;2023-02-15T07:44:29;-0.40;99.90
33255;DHT22;19623;52.482;9.762;2023-02-15T07:46:55;-0.40;99.90
33255;DHT22;19623;52.482;9.762;2023-02-15T07:49:20;-0.30;99.90
33255;DHT22;19623;52.482;9.762;2023-02-15T07:51:46;-0.10;99.90
33255;DHT22;19623;52.482;9.762;2023-02-15T07:54:12;0.00;99.90
33255;DHT22;19623;52.482;9.762;2023-02-15T07:56:37;0.10;99.90
33255;DHT22;19623;52.482;9.762;2023-02-15T07:59:03;0.20;99.90
33255;DHT22;19623;52.482;9.762;2023-02-15T08:01:36;0.30;99.90
33255;DHT22;19623;52.482;9.762;2023-02-15T08:04:03;0.40;99.90
33255;DHT22;19623;52.482;9.762;2023-02-15T08:06:32;0.40;99.90
33255;DHT22;19623;52.482;9.762;2023-02-15T08:08:58;0.50;99.90
33255;DHT22;19623;52.482;9.762;2023-02-15T08:11:28;0.50;99.90
33255;DHT22;19623;52.482;9.762;2023-02-15T08:14:06;0.70;99.90
33255;DHT22;19623;52.482;9.762;2023-02-15T08:18:59;0.80;99.90
33255;DHT22;19623;52.482;9.762;2023-02-15T08:21:27;0.90;99.90
33255;DHT22;19623;52.482;9.762;2023-02-15T08:23:53;1.00;99.90
33255;DHT22;19623;52.482;9.762;2023-02-15T08:26:20;1.10;99.90
33255;DHT22;19623;52.482;9.762;2023-02-15T08:28:45;1.20;99.90
33255;DHT22;19623;52.482;9.762;2023-02-15T08:31:13;1.30;99.90
33255;DHT22;19623;52.482;9.762;2023-02-15T08:33:40;1.40;99.90
33255;DHT22;19623;52.482;9.762;2023-02-15T08:36:08;1.50;99.90
33255;DHT22;19623;52.482;9.762;2023-02-15T08:38:34;1.60;99.90
33255;DHT22;19623;52.482;9.762;2023-02-15T08:41:10;1.60;99.90
33255;DHT22;19623;52.482;9.762;2023-02-15T08:43:36;1.70;99.90
33255;DHT22;19623;52.482;9.762;2023-02-15T08:46:02;1.80;99.90
33255;DHT22;19623;52.482;9.762;2023-02-15T08:48:28;1.90;99.90
33255;DHT22;19623;52.482;9.762;2023-02-15T08:50:53;2.10;99.90
33255;DHT22;19623;52.482;9.762;2023-02-15T08:53:19;2.20;99.90
33255;DHT22;19623;52.482;9.762;2023-02-15T08:55:47;2.30;99.90
33255;DHT22;19623;52.482;9.762;2023-02-15T08:58:20;2.50;99.90
33255;DHT22;19623;52.482;9.762;2023-02-15T09:00:45;2.60;99.90
33255;DHT22;19623;52.482;9.762;2023-02-15T09:03:14;2.70;99.90
33255;DHT22;19623;52.482;9.762;2023-02-15T09:05:39;2.80;99.90
33255;DHT22;19623;52.482;9.762;2023-02-15T09:08:05;2.90;99.90
33255;DHT22;19623;52.482;9.762;2023-02-15T09:10:30;3.00;99.90
33255;DHT22;19623;52.482;9.762;2023-02-15T09:12:56;3.30;99.90
33255;DHT22;19623;52.482;9.762;2023-02-15T09:15:22;3.50;99.90
33255;DHT22;19623;52.482;9.762;2023-02-15T09:17:47;3.60;99.90
33255;DHT22;19623;52.482;9.762;2023-02-15T09:20:13;3.70;99.90
33255;DHT22;19623;52.482;9.762;2023-02-15T09:22:39;3.70;99.90
33255;DHT22;19623;52.482;9.762;2023-02-15T09:25:04;3.80;99.90
33255;DHT22;19623;52.482;9.762;2023-02-15T09:27:30;3.90;99.90
33255;DHT22;19623;52.482;9.762;2023-02-15T09:29:56;4.10;99.90
33255;DHT22;19623;52.482;9.762;2023-02-15T09:32:21;4.10;99.90
33255;DHT22;19623;52.482;9.762;2023-02-15T09:34:48;4.20;99.90
33255;DHT22;19623;52.482;9.762;2023-02-15T09:37:13;4.20;99.90
33255;DHT22;19623;52.482;9.762;2023-02-15T09:39:41;4.20;99.90
33255;DHT22;19623;52.482;9.762;2023-02-15T09:51:41;4.60;99.90
33255;DHT22;19623;52.482;9.762;2023-02-15T09:57:23;4.90;99.90
33255;DHT22;19623;52.482;9.762;2023-02-15T10:00:02;5.00;99.90
33255;DHT22;19623;52.482;9.762;2023-02-15T10:05:30;5.10;99.90
33255;DHT22;19623;52.482;9.762;2023-02-15T10:11:15;5.30;99.90
33255;DHT22;19623;52.482;9.762;2023-02-15T10:19:36;5.70;99.90
33255;DHT22;19623;52.482;9.762;2023-02-15T10:27:46;6.00;99.90
33255;DHT22;19623;52.482;9.762;2023-02-15T10:30:22;6.10;99.90
33255;DHT22;19623;52.482;9.762;2023-02-15T10:33:00;6.20;99.90
33255;DHT22;19623;52.482;9.762;2023-02-15T10:35:58;6.20;99.90
33255;DHT22;19623;52.482;9.762;2023-02-15T10:38:29;6.30;99.90
33255;DHT22;19623;52.482;9.762;2023-02-15T10:44:10;6.30;99.90
33255;DHT22;19623;52.482;9.762;2023-02-15T11:06:17;7.00;99.90
33255;DHT22;19623;52.482;9.762;2023-02-15T11:08:54;7.00;99.90
33255;DHT22;19623;52.482;9.762;2023-02-15T11:11:30;6.90;99.90
33255;DHT22;19623;52.482;9.762;2023-02-15T11:14:05;7.00;99.90
33255;DHT22;19623;52.482;9.762;2023-02-15T11:16:42;7.00;99.90
33255;DHT22;19623;52.482;9.762;2023-02-15T11:19:22;7.00;99.90
33255;DHT22;19623;52.482;9.762;2023-02-15T11:21:58;7.00;99.90
33255;DHT22;19623;52.482;9.762;2023-02-15T11:24:27;7.00;99.90
33255;DHT22;19623;52.482;9.762;2023-02-15T11:29:31;7.00;99.90
33255;DHT22;19623;52.482;9.762;2023-02-15T11:35:03;7.20;99.90
33255;DHT22;19623;52.482;9.762;2023-02-15T11:37:48;7.30;99.90
33255;DHT22;19623;52.482;9.762;2023-02-15T11:43:00;7.60;99.90
33255;DHT22;19623;52.482;9.762;2023-02-15T11:45:36;7.60;99.90
33255;DHT22;19623;52.482;9.762;2023-02-15T11:48:09;7.60;99.90
33255;DHT22;19623;52.482;9.762;2023-02-15T11:50:36;7.70;99.90
33255;DHT22;19623;52.482;9.762;2023-02-15T11:53:16;7.70;99.90
33255;DHT22;19623;52.482;9.762;2023-02-15T11:55:45;7.70;99.90
33255;DHT22;19623;52.482;9.762;2023-02-15T11:58:28;7.70;99.90
33255;DHT22;19623;52.482;9.762;2023-02-15T12:01:18;7.80;99.90
33255;DHT22;19623;52.482;9.762;2023-02-15T12:03:51;7.80;99.90
33255;DHT22;19623;52.482;9.762;2023-02-15T12:06:33;7.90;99.90
33255;DHT22;19623;52.482;9.762;2023-02-15T12:12:24;8.10;99.90
33255;DHT22;19623;52.482;9.762;2023-02-15T12:14:53;8.20;99.90
33255;DHT22;19623;52.482;9.762;2023-02-15T12:17:21;8.10;99.90
33255;DHT22;19623;52.482;9.762;2023-02-15T12:19:48;8.20;99.90
33255;DHT22;19623;52.482;9.762;2023-02-15T12:22:25;8.30;99.90
33255;DHT22;19623;52.482;9.762;2023-02-15T12:24:55;8.20;99.90
33255;DHT22;19623;52.482;9.762;2023-02-15T12:27:30;8.30;99.90
33255;DHT22;19623;52.482;9.762;2023-02-15T12:32:27;8.20;99.90
33255;DHT22;19623;52.482;9.762;2023-02-15T12:35:16;8.30;99.90
33255;DHT22;19623;52.482;9.762;2023-02-15T12:40:37;8.40;99.90
33255;DHT22;19623;52.482;9.762;2023-02-15T12:43:03;8.40;99.90
33255;DHT22;19623;52.482;9.762;2023-02-15T12:45:36;8.50;99.90
33255;DHT22;19623;52.482;9.762;2023-02-15T12:48:17;8.60;99.90
33255;DHT22;19623;52.482;9.762;2023-02-15T12:50:50;8.60;99.90
33255;DHT22;19623;52.482;9.762;2023-02-15T12:53:30;8.60;99.90
33255;DHT22;19623;52.482;9.762;2023-02-15T12:56:06;8.70;99.90
33255;DHT22;19623;52.482;9.762;2023-02-15T12:58:33;8.90;99.90
33255;DHT22;19623;52.482;9.762;2023-02-15T13:03:28;9.00;99.90
33255;DHT22;19623;52.482;9.762;2023-02-15T13:05:56;9.00;99.90
33255;DHT22;19623;52.482;9.762;2023-02-15T13:08:31;9.10;99.90
33255;DHT22;19623;52.482;9.762;2023-02-15T13:11:07;9.20;99.90
33255;DHT22;19623;52.482;9.762;2023-02-15T13:14:22;9.30;99.90
33255;DHT22;19623;52.482;9.762;2023-02-15T13:16:34;9.30;99.90
33255;DHT22;19623;52.482;9.762;2023-02-15T13:19:17;9.10;99.90
33255;DHT22;19623;52.482;9.762;2023-02-15T13:21:48;9.20;99.90
33255;DHT22;19623;52.482;9.762;2023-02-15T13:24:22;9.40;99.90
33255;DHT22;19623;52.482;9.762;2023-02-15T13:26:49;9.30;99.90
33255;DHT22;19623;52.482;9.762;2023-02-15T13:29:28;9.40;99.90
33255;DHT22;19623;52.482;9.762;2023-02-15T13:32:07;9.30;99.90
33255;DHT22;19623;52.482;9.762;2023-02-15T13:34:37;9.40;99.90
33255;DHT22;19623;52.482;9.762;2023-02-15T13:37:30;9.40;99.90
33255;DHT22;19623;52.482;9.762;2023-02-15T13:40:08;9.50;99.90
33255;DHT22;19623;52.482;9.762;2023-02-15T13:42:53;9.60;99.90
33255;DHT22;19623;52.482;9.762;2023-02-15T13:51:32;9.80;99.90
33255;DHT22;19623;52.482;9.762;2023-02-15T13:54:06;9.80;99.90
33255;DHT22;19623;52.482;9.762;2023-02-15T14:00:04;9.90;99.90
33255;DHT22;19623;52.482;9.762;2023-02-15T14:06:02;10.00;99.90
33255;DHT22;19623;52.482;9.762;2023-02-15T14:11:38;9.90;99.90
33255;DHT22;19623;52.482;9.762;2023-02-15T14:26:06;9.30;99.90
33255;DHT22;19623;52.482;9.762;2023-02-15T14:31:12;9.30;99.90
33255;DHT22;19623;52.482;9.762;2023-02-15T14:33:41;9.30;99.90
33255;DHT22;19623;52.482;9.762;2023-02-15T14:36:13;9.20;99.90
33255;DHT22;19623;52.482;9.762;2023-02-15T14:41:44;9.20;99.90
33255;DHT22;19623;52.482;9.762;2023-02-15T14:44:23;9.10;99.90
33255;DHT22;19623;52.482;9.762;2023-02-15T14:49:39;9.10;99.90
33255;DHT22;19623;52.482;9.762;2023-02-15T14:52:09;9.10;99.90
33255;DHT22;19623;52.482;9.762;2023-02-15T14:59:40;9.20;99.90
33255;DHT22;19623;52.482;9.762;2023-02-15T15:04:46;9.20;99.90
33255;DHT22;19623;52.482;9.762;2023-02-15T15:07:35;9.20;99.90
33255;DHT22;19623;52.482;9.762;2023-02-15T15:20:48;9.10;99.90
33255;DHT22;19623;52.482;9.762;2023-02-15T15:25:47;9.10;99.90
33255;DHT22;19623;52.482;9.762;2023-02-15T15:42:19;8.80;99.90
33255;DHT22;19623;52.482;9.762;2023-02-15T15:45:16;8.80;99.90
33255;DHT22;19623;52.482;9.762;2023-02-15T15:48:01;8.70;99.90
33255;DHT22;19623;52.482;9.762;2023-02-15T15:50:32;8.60;99.90
33255;DHT22;19623;52.482;9.762;2023-02-15T15:52:59;8.50;99.90
33255;DHT22;19623;52.482;9.762;2023-02-15T15:55:29;8.40;99.90
33255;DHT22;19623;52.482;9.762;2023-02-15T15:58:02;8.40;99.90
33255;DHT22;19623;52.482;9.762;2023-02-15T16:00:36;8.20;99.90
33255;DHT22;19623;52.482;9.762;2023-02-15T16:03:04;8.10;99.90
33255;DHT22;19623;52.482;9.762;2023-02-15T16:05:37;8.00;99.90
33255;DHT22;19623;52.482;9.762;2023-02-15T16:08:04;7.90;99.90
33255;DHT22;19623;52.482;9.762;2023-02-15T16:10:31;7.70;99.90
33255;DHT22;19623;52.482;9.762;2023-02-15T16:12:59;7.60;99.90
33255;DHT22;19623;52.482;9.762;2023-02-15T16:15:42;7.50;99.90
33255;DHT22;19623;52.482;9.762;2023-02-15T16:18:14;7.50;99.90
33255;DHT22;19623;52.482;9.762;2023-02-15T16:20:58;7.40;99.90
33255;DHT22;19623;52.482;9.762;2023-02-15T16:28:35;7.10;99.90
33255;DHT22;19623;52.482;9.762;2023-02-15T16:31:12;7.00;99.90
33255;DHT22;19623;52.482;9.762;2023-02-15T16:33:42;6.80;99.90
33255;DHT22;19623;52.482;9.762;2023-02-15T16:36:28;6.60;99.90
33255;DHT22;19623;52.482;9.762;2023-02-15T16:41:25;6.50;99.90
33255;DHT22;19623;52.482;9.762;2023-02-15T16:43:54;6.60;99.90
33255;DHT22;19623;52.482;9.762;2023-02-15T16:46:39;6.70;99.90
33255;DHT22;19623;52.482;9.762;2023-02-15T16:49:19;6.70;99.90
33255;DHT22;19623;52.482;9.762;2023-02-15T16:51:55;6.70;99.90
33255;DHT22;19623;52.482;9.762;2023-02-15T16:54:26;6.60;99.90
33255;DHT22;19623;52.482;9.762;2023-02-15T16:56:52;6.60;99.90
33255;DHT22;19623;52.482;9.762;2023-02-15T17:01:56;6.50;99.90
33255;DHT22;19623;52.482;9.762;2023-02-15T17:09:26;6.40;99.90
33255;DHT22;19623;52.482;9.762;2023-02-15T17:11:52;6.30;99.90
33255;DHT22;19623;52.482;9.762;2023-02-15T17:14:20;6.30;99.90
33255;DHT22;19623;52.482;9.762;2023-02-15T17:16:47;6.20;99.90
33255;DHT22;19623;52.482;9.762;2023-02-15T17:19:21;6.20;99.90
33255;DHT22;19623;52.482;9.762;2023-02-15T17:22:15;6.10;99.90
33255;DHT22;19623;52.482;9.762;2023-02-15T17:24:43;6.20;99.90
33255;DHT22;19623;52.482;9.762;2023-02-15T17:27:20;6.20;99.90
33255;DHT22;19623;52.482;9.762;2023-02-15T17:29:50;6.00;99.90
33255;DHT22;19623;52.482;9.762;2023-02-15T17:32:23;6.00;99.90
33255;DHT22;19623;52.482;9.762;2023-02-15T17:34:50;5.90;99.90
33255;DHT22;19623;52.482;9.762;2023-02-15T17:37:24;5.90;99.90
33255;DHT22;19623;52.482;9.762;2023-02-15T17:39:51;5.90;99.90
33255;DHT22;19623;52.482;9.762;2023-02-15T17:42:16;5.90;99.90
33255;DHT22;19623;52.482;9.762;2023-02-15T17:44:42;5.90;99.90
33255;DHT22;19623;52.482;9.762;2023-02-15T17:47:18;5.80;99.90
33255;DHT22;19623;52.482;9.762;2023-02-15T17:49:45;5.70;99.90
33255;DHT22;19623;52.482;9.762;2023-02-15T17:52:15;5.60;99.90
33255;DHT22;19623;52.482;9.762;2023-02-15T17:54:42;5.60;99.90
33255;DHT22;19623;52.482;9.762;2023-02-15T17:57:26;5.50;99.90
33255;DHT22;19623;52.482;9.762;2023-02-15T17:59:53;5.50;99.90
33255;DHT22;19623;52.482;9.762;2023-02-15T18:02:38;5.40;99.90
33255;DHT22;19623;52.482;9.762;2023-02-15T18:05:22;5.30;99.90
33255;DHT22;19623;52.482;9.762;2023-02-15T18:08:14;5.20;99.90
33255;DHT22;19623;52.482;9.762;2023-02-15T18:11:00;5.00;99.90
33255;DHT22;19623;52.482;9.762;2023-02-15T18:13:45;4.90;99.90
33255;DHT22;19623;52.482;9.762;2023-02-15T18:16:20;4.70;99.90
33255;DHT22;19623;52.482;9.762;2023-02-15T18:18:47;4.60;99.90
33255;DHT22;19623;52.482;9.762;2023-02-15T18:21:13;4.70;99.90
33255;DHT22;19623;52.482;9.762;2023-02-15T18:23:39;4.70;99.90
33255;DHT22;19623;52.482;9.762;2023-02-15T18:26:05;4.80;99.90
33255;DHT22;19623;52.482;9.762;2023-02-15T18:28:31;4.90;99.90
33255;DHT22;19623;52.482;9.762;2023-02-15T18:30:58;4.80;99.90
33255;DHT22;19623;52.482;9.762;2023-02-15T18:33:39;4.70;99.90
33255;DHT22;19623;52.482;9.762;2023-02-15T18:36:08;4.60;99.90
33255;DHT22;19623;52.482;9.762;2023-02-15T18:38:38;4.50;99.90
33255;DHT22;19623;52.482;9.762;2023-02-15T18:41:05;4.60;99.90
33255;DHT22;19623;52.482;9.762;2023-02-15T18:43:31;4.70;99.90
33255;DHT22;19623;52.482;9.762;2023-02-15T18:45:56;4.70;99.90
33255;DHT22;19623;52.482;9.762;2023-02-15T18:48:22;4.60;99.90
33255;DHT22;19623;52.482;9.762;2023-02-15T18:50:49;4.60;99.90
33255;DHT22;19623;52.482;9.762;2023-02-15T18:53:18;4.60;99.90
33255;DHT22;19623;52.482;9.762;2023-02-15T18:55:45;4.60;99.90
33255;DHT22;19623;52.482;9.762;2023-02-15T18:58:17;4.60;99.90
33255;DHT22;19623;52.482;9.762;2023-02-15T19:00:43;4.50;99.90
33255;DHT22;19623;52.482;9.762;2023-02-15T19:03:12;4.40;99.90
33255;DHT22;19623;52.482;9.762;2023-02-15T19:05:41;4.30;99.90
33255;DHT22;19623;52.482;9.762;2023-02-15T19:08:18;4.30;99.90
33255;DHT22;19623;52.482;9.762;2023-02-15T19:10:46;4.50;99.90
33255;DHT22;19623;52.482;9.762;2023-02-15T19:13:14;4.50;99.90
33255;DHT22;19623;52.482;9.762;2023-02-15T19:15:40;4.70;99.90
33255;DHT22;19623;52.482;9.762;2023-02-15T19:18:06;4.70;99.90
33255;DHT22;19623;52.482;9.762;2023-02-15T19:20:36;4.70;99.90